createdAt,value
2022-08-23T00:00:00.504Z,74.10
2022-08-23T00:02:33.546Z,74.00
2022-08-23T00:05:07.814Z,75.50
2022-08-23T00:07:42.199Z,76.20
2022-08-23T00:10:14.382Z,76.70
2022-08-23T00:12:42.588Z,76.30
2022-08-23T00:15:12.978Z,76.00
2022-08-23T00:17:39.912Z,75.50
2022-08-23T00:20:09.402Z,74.80
2022-08-23T00:22:37.411Z,76.60
2022-08-23T00:25:05.869Z,77.20
2022-08-23T00:27:33.474Z,77.40
2022-08-23T00:30:01.634Z,77.60
2022-08-23T00:32:32.205Z,78.00
2022-08-23T00:35:00.521Z,78.10
2022-08-23T00:37:29.739Z,78.40
2022-08-23T00:39:56.790Z,77.60
2022-08-23T00:42:42.260Z,77.80
2022-08-23T00:45:31.161Z,77.70
2022-08-23T00:47:58.814Z,78.60
2022-08-23T00:50:32.837Z,78.90
2022-08-23T00:53:08.217Z,79.70
2022-08-23T00:55:36.660Z,79.90
2022-08-23T00:58:04.177Z,79.80
2022-08-23T01:00:32.577Z,79.60
2022-08-23T01:03:00.055Z,79.60
2022-08-23T01:05:32.372Z,79.20
2022-08-23T01:08:00.125Z,79.60
2022-08-23T01:10:37.281Z,79.40
2022-08-23T01:13:16.730Z,79.40
2022-08-23T01:15:55.713Z,79.90
2022-08-23T01:18:26.557Z,78.90
2022-08-23T01:21:10.356Z,78.90
2022-08-23T01:23:44.673Z,78.60
2022-08-23T01:26:14.424Z,77.70
2022-08-23T01:28:51.230Z,78.40
2022-08-23T01:31:19.346Z,78.20
2022-08-23T01:34:02.255Z,78.20
2022-08-23T01:36:30.232Z,78.40
2022-08-23T01:38:57.542Z,79.10
2022-08-23T01:41:24.542Z,79.00
2022-08-23T01:43:51.963Z,79.50
2022-08-23T01:46:23.079Z,79.60
2022-08-23T01:48:52.168Z,78.90
2022-08-23T01:51:20.624Z,79.30
2022-08-23T01:53:47.756Z,80.30
2022-08-23T01:56:19.797Z,78.40
2022-08-23T01:58:56.567Z,79.30
2022-08-23T02:01:26.776Z,78.90
2022-08-23T02:04:04.242Z,78.30
2022-08-23T02:06:32.384Z,77.90
2022-08-23T02:09:04.373Z,77.50
2022-08-23T02:11:38.437Z,77.60
2022-08-23T02:14:08.880Z,77.80
2022-08-23T02:17:02.953Z,78.00
2022-08-23T02:19:32.828Z,78.20
2022-08-23T02:22:00.178Z,78.10
2022-08-23T02:24:27.315Z,78.00
2022-08-23T02:26:57.267Z,77.90
2022-08-23T02:29:29.512Z,77.80
2022-08-23T02:31:58.615Z,78.50
2022-08-23T02:34:27.892Z,77.60
2022-08-23T02:36:55.148Z,78.00
2022-08-23T02:39:23.560Z,77.50
2022-08-23T02:41:51.922Z,77.70
2022-08-23T02:44:20.831Z,78.20
2022-08-23T02:46:48.423Z,78.20
2022-08-23T02:49:16.432Z,78.30
2022-08-23T02:51:43.831Z,78.20
2022-08-23T02:54:11.182Z,78.50
2022-08-23T02:56:38.267Z,78.90
2022-08-23T02:59:06.843Z,78.90
2022-08-23T03:01:38.313Z,78.10
2022-08-23T03:04:40.318Z,77.90
2022-08-23T03:07:07.349Z,78.30
2022-08-23T03:09:35.797Z,78.80
2022-08-23T03:12:02.915Z,77.40
2022-08-23T03:14:32.708Z,75.80
2022-08-23T03:17:00.900Z,75.50
2022-08-23T03:19:27.997Z,75.50
2022-08-23T03:21:54.963Z,75.50
2022-08-23T03:24:22.852Z,75.70
2022-08-23T03:26:50.188Z,75.70
2022-08-23T03:29:17.645Z,75.50
2022-08-23T03:32:00.501Z,76.90
2022-08-23T03:34:29.457Z,77.90
2022-08-23T03:36:59.412Z,78.00
2022-08-23T03:39:26.834Z,77.50
2022-08-23T03:41:55.423Z,78.40
2022-08-23T03:44:22.704Z,77.90
2022-08-23T03:46:50.959Z,77.90
2022-08-23T03:49:17.908Z,77.60
2022-08-23T03:51:51.918Z,77.50
2022-08-23T03:54:19.476Z,77.00
2022-08-23T03:57:05.630Z,77.40
2022-08-23T03:59:35.709Z,78.00
2022-08-23T04:02:06.033Z,80.10
2022-08-23T04:04:33.423Z,82.30
2022-08-23T04:07:26.877Z,82.60
2022-08-23T04:09:56.576Z,82.80
2022-08-23T04:12:27.387Z,82.80
2022-08-23T04:14:57.455Z,81.90
2022-08-23T04:17:25.064Z,81.40
2022-08-23T04:19:53.011Z,80.50
2022-08-23T04:22:20.865Z,81.50
2022-08-23T04:24:48.369Z,82.50
2022-08-23T04:27:16.398Z,83.70
2022-08-23T04:29:44.612Z,82.40
2022-08-23T04:32:12.073Z,82.70
2022-08-23T04:34:42.402Z,82.40
2022-08-23T04:37:13.717Z,82.50
2022-08-23T04:39:59.786Z,81.90
2022-08-23T04:42:33.249Z,82.70
2022-08-23T04:45:01.257Z,83.30
2022-08-23T04:47:28.380Z,83.20
2022-08-23T04:50:01.367Z,82.10
2022-08-23T04:52:28.540Z,81.20
2022-08-23T04:54:56.576Z,81.20
2022-08-23T04:57:45.745Z,81.50
2022-08-23T05:00:17.416Z,81.70
2022-08-23T05:02:53.111Z,81.90
2022-08-23T05:05:20.741Z,82.10
2022-08-23T05:07:48.631Z,82.40
2022-08-23T05:10:16.741Z,82.30
2022-08-23T05:12:50.772Z,80.80
2022-08-23T05:15:20.416Z,79.50
2022-08-23T05:17:53.339Z,78.50
2022-08-23T05:20:20.565Z,77.10
2022-08-23T05:22:47.460Z,75.10
2022-08-23T05:25:45.825Z,72.80
2022-08-23T05:28:13.817Z,71.70
2022-08-23T05:30:42.324Z,70.90
2022-08-23T05:33:23.915Z,69.70
2022-08-23T05:35:51.246Z,68.70
2022-08-23T05:38:20.758Z,68.30
2022-08-23T05:40:55.160Z,67.80
2022-08-23T05:43:22.727Z,67.70
2022-08-23T05:46:03.590Z,67.90
2022-08-23T05:48:34.026Z,67.80
2022-08-23T05:51:15.421Z,67.50
2022-08-23T05:53:43.174Z,66.90
2022-08-23T05:56:21.908Z,66.80
2022-08-23T05:58:50.972Z,67.20
2022-08-23T06:01:22.224Z,67.20
2022-08-23T06:03:53.049Z,67.30
2022-08-23T06:06:21.132Z,67.40
2022-08-23T06:08:48.816Z,67.40
2022-08-23T06:11:22.820Z,67.70
2022-08-23T06:13:53.983Z,68.40
2022-08-23T06:16:24.316Z,69.20
2022-08-23T06:18:52.284Z,69.90
2022-08-23T06:21:38.595Z,70.30
2022-08-23T06:24:07.218Z,69.90
2022-08-23T06:26:41.504Z,69.60
2022-08-23T06:29:12.068Z,69.20
2022-08-23T06:31:51.060Z,69.70
2022-08-23T06:34:36.633Z,70.30
2022-08-23T06:37:14.567Z,69.50
2022-08-23T06:39:59.933Z,69.20
2022-08-23T06:42:40.762Z,70.20
2022-08-23T06:45:09.598Z,70.00
2022-08-23T06:47:43.362Z,70.90
2022-08-23T06:50:10.942Z,70.70
2022-08-23T06:52:56.269Z,69.90
2022-08-23T06:55:43.897Z,69.20
2022-08-23T06:58:39.760Z,68.70
2022-08-23T07:01:45.532Z,68.50
2022-08-23T07:04:39.280Z,67.80
2022-08-23T07:07:37.692Z,68.60
2022-08-23T07:10:10.074Z,68.00
2022-08-23T07:12:42.627Z,67.60
2022-08-23T07:15:12.871Z,67.70
2022-08-23T07:17:43.168Z,67.70
2022-08-23T07:20:10.491Z,68.30
2022-08-23T07:22:40.516Z,66.90
2022-08-23T07:25:08.884Z,67.00
2022-08-23T07:27:37.307Z,67.10
2022-08-23T07:30:08.886Z,66.90
2022-08-23T07:32:38.224Z,67.00
2022-08-23T07:35:21.572Z,67.00
2022-08-23T07:37:50.146Z,66.80
2022-08-23T07:40:20.634Z,67.10
2022-08-23T07:42:54.483Z,66.60
2022-08-23T07:45:22.327Z,66.90
2022-08-23T07:47:54.318Z,67.20
2022-08-23T07:50:22.670Z,67.50
2022-08-23T07:52:53.168Z,67.80
2022-08-23T07:55:20.153Z,67.40
2022-08-23T07:58:26.658Z,67.10
2022-08-23T08:01:26.764Z,67.00
2022-08-23T08:03:56.535Z,67.00
2022-08-23T08:06:31.871Z,67.40
2022-08-23T08:08:59.431Z,67.90
2022-08-23T08:11:33.675Z,67.70
2022-08-23T08:14:07.193Z,67.40
2022-08-23T08:16:42.587Z,68.00
2022-08-23T08:19:15.108Z,67.70
2022-08-23T08:22:13.151Z,68.10
2022-08-23T08:24:58.583Z,68.00
2022-08-23T08:27:25.695Z,67.10
2022-08-23T08:29:52.624Z,67.40
2022-08-23T08:32:23.040Z,67.80
2022-08-23T08:34:50.465Z,68.90
2022-08-23T08:37:17.511Z,69.20
2022-08-23T08:39:47.227Z,68.50
2022-08-23T08:42:31.714Z,68.00
2022-08-23T08:45:00.959Z,68.40
2022-08-23T08:47:46.893Z,68.70
2022-08-23T08:50:38.062Z,68.90
2022-08-23T08:53:36.934Z,68.00
2022-08-23T08:56:23.324Z,69.30
2022-08-23T08:59:06.543Z,69.50
2022-08-23T09:01:37.522Z,68.40
2022-08-23T09:04:06.445Z,67.30
2022-08-23T09:06:53.170Z,67.00
2022-08-23T09:09:47.860Z,67.00
2022-08-23T09:12:22.578Z,67.10
2022-08-23T09:15:04.770Z,68.00
2022-08-23T09:17:38.934Z,68.20
2022-08-23T09:20:07.363Z,68.40
2022-08-23T09:22:43.936Z,68.10
2022-08-23T09:25:20.708Z,68.30
2022-08-23T09:27:58.059Z,67.90
2022-08-23T09:30:50.379Z,67.20
2022-08-23T09:33:27.188Z,67.60
2022-08-23T09:36:27.047Z,66.80
2022-08-23T09:39:24.376Z,66.40
2022-08-23T09:42:08.592Z,66.20
2022-08-23T09:44:41.186Z,67.20
2022-08-23T09:47:17.151Z,67.00
2022-08-23T09:49:52.159Z,66.60
2022-08-23T09:52:33.768Z,65.80
2022-08-23T09:55:09.468Z,66.20
2022-08-23T09:57:48.051Z,66.50
2022-08-23T10:00:20.117Z,66.50
2022-08-23T10:02:57.198Z,66.40
2022-08-23T10:05:51.358Z,66.40
2022-08-23T10:08:27.340Z,66.10
2022-08-23T10:11:06.939Z,66.20
2022-08-23T10:13:38.839Z,66.10
2022-08-23T10:16:12.303Z,64.60
2022-08-23T10:19:01.474Z,64.30
2022-08-23T10:21:42.008Z,63.50
2022-08-23T10:24:34.038Z,63.80
2022-08-23T10:27:45.026Z,63.50
2022-08-23T10:30:13.471Z,63.30
2022-08-23T10:32:54.852Z,64.20
2022-08-23T10:35:47.191Z,63.30
2022-08-23T10:38:37.658Z,63.90
2022-08-23T10:41:06.603Z,62.00
2022-08-23T10:43:52.130Z,62.60
2022-08-23T10:46:21.846Z,63.90
2022-08-23T10:48:59.513Z,64.30
2022-08-23T10:51:34.103Z,65.60
2022-08-23T10:54:47.007Z,65.50
2022-08-23T10:57:21.721Z,65.30
2022-08-23T10:59:52.597Z,64.90
2022-08-23T11:02:25.321Z,66.10
2022-08-23T11:05:28.110Z,66.40
2022-08-23T11:08:30.690Z,66.60
2022-08-23T11:10:59.248Z,66.30
2022-08-23T11:13:34.300Z,66.00
2022-08-23T11:16:15.514Z,65.40
2022-08-23T11:18:48.625Z,64.70
2022-08-23T11:21:24.922Z,64.50
2022-08-23T11:23:59.788Z,64.10
2022-08-23T11:26:36.199Z,64.20
2022-08-23T11:29:06.157Z,63.10
2022-08-23T11:31:47.270Z,62.10
2022-08-23T11:34:29.507Z,62.00
2022-08-23T11:37:20.658Z,62.30
2022-08-23T11:39:58.550Z,63.70
2022-08-23T11:42:42.397Z,62.60
2022-08-23T11:45:42.710Z,62.50
2022-08-23T11:48:14.810Z,59.30
2022-08-23T11:51:02.974Z,57.70
2022-08-23T11:53:54.779Z,57.30
2022-08-23T11:56:28.288Z,58.50
2022-08-23T11:59:17.200Z,59.80
2022-08-23T12:01:45.585Z,58.90
2022-08-23T12:04:37.713Z,59.70
2022-08-23T12:07:12.484Z,61.00
2022-08-23T12:09:42.415Z,60.10
2022-08-23T12:12:32.521Z,59.80
2022-08-23T12:15:08.102Z,60.90
2022-08-23T12:17:34.963Z,60.90
2022-08-23T12:20:17.000Z,61.60
2022-08-23T12:22:59.377Z,61.90
2022-08-23T12:25:27.075Z,61.50
2022-08-23T12:28:01.696Z,61.00
2022-08-23T12:30:48.801Z,60.10
2022-08-23T12:33:45.844Z,61.20
2022-08-23T12:36:32.529Z,61.00
2022-08-23T12:39:22.391Z,60.70
2022-08-23T12:41:55.763Z,60.60
2022-08-23T12:44:26.635Z,61.30
2022-08-23T12:46:53.786Z,59.90
2022-08-23T12:49:34.742Z,60.50
2022-08-23T12:52:08.141Z,59.50
2022-08-23T12:54:39.193Z,59.00
2022-08-23T12:57:11.591Z,58.90
2022-08-23T13:00:01.509Z,58.90
2022-08-23T13:02:59.071Z,60.00
2022-08-23T13:05:26.183Z,59.30
2022-08-23T13:07:53.750Z,59.30
2022-08-23T13:10:20.920Z,59.50
2022-08-23T13:12:48.175Z,60.20
2022-08-23T13:15:45.054Z,60.60
2022-08-23T13:18:41.685Z,60.60
2022-08-23T13:21:25.510Z,60.10
2022-08-23T13:23:55.165Z,59.80
2022-08-23T13:26:39.747Z,60.50
2022-08-23T13:29:15.829Z,60.10
2022-08-23T13:32:02.678Z,59.60
2022-08-23T13:34:50.109Z,58.50
2022-08-23T13:37:26.668Z,58.60
2022-08-23T13:40:06.384Z,58.20
2022-08-23T13:42:36.623Z,58.10
2022-08-23T13:45:16.133Z,58.10
2022-08-23T13:48:01.818Z,57.90
2022-08-23T13:50:34.975Z,57.90
2022-08-23T13:53:17.459Z,57.70
2022-08-23T13:55:47.273Z,57.70
2022-08-23T13:58:25.404Z,57.90
2022-08-23T14:00:55.706Z,58.40
2022-08-23T14:03:24.410Z,57.70
2022-08-23T14:05:52.828Z,58.40
2022-08-23T14:08:20.581Z,57.20
2022-08-23T14:10:47.748Z,57.60
2022-08-23T14:13:16.949Z,57.30
2022-08-23T14:15:56.517Z,57.70
2022-08-23T14:18:23.787Z,57.70
2022-08-23T14:20:51.358Z,57.90
2022-08-23T14:23:18.991Z,58.20
2022-08-23T14:25:47.270Z,58.00
2022-08-23T14:28:14.213Z,57.80
2022-08-23T14:30:41.163Z,57.50
2022-08-23T14:33:08.202Z,58.10
2022-08-23T14:35:38.141Z,58.10
2022-08-23T14:38:05.424Z,57.30
2022-08-23T14:40:33.252Z,57.10
2022-08-23T14:43:00.414Z,57.90
2022-08-23T14:45:27.461Z,57.60
2022-08-23T14:47:54.316Z,57.30
2022-08-23T14:50:21.355Z,56.50
2022-08-23T14:52:48.471Z,56.40
2022-08-23T14:55:15.576Z,56.60
2022-08-23T14:57:42.693Z,56.40
2022-08-23T15:00:14.031Z,55.90
2022-08-23T15:02:46.248Z,56.50
2022-08-23T15:05:14.284Z,56.60
2022-08-23T15:07:41.245Z,56.90
2022-08-23T15:10:10.059Z,57.00
2022-08-23T15:15:24.650Z,56.70
2022-08-23T15:18:01.035Z,56.70
2022-08-23T15:20:34.300Z,58.10
2022-08-23T15:23:02.240Z,56.70
2022-08-23T15:25:30.965Z,57.00
2022-08-23T15:27:58.138Z,57.30
2022-08-23T15:30:25.460Z,56.30
2022-08-23T15:32:56.849Z,56.50
2022-08-23T15:35:26.028Z,56.70
2022-08-23T15:37:54.765Z,57.00
2022-08-23T15:40:23.167Z,56.60
2022-08-23T15:42:50.139Z,56.30
2022-08-23T15:45:17.155Z,56.90
2022-08-23T15:47:49.930Z,56.30
2022-08-23T15:50:19.603Z,56.90
2022-08-23T15:52:46.527Z,56.30
2022-08-23T15:55:13.763Z,56.00
2022-08-23T15:57:45.820Z,56.00
2022-08-23T16:00:14.888Z,55.60
2022-08-23T16:03:06.462Z,56.10
2022-08-23T16:05:31.132Z,55.90
2022-08-23T16:07:58.262Z,56.70
2022-08-23T16:10:28.092Z,56.00
2022-08-23T16:12:55.729Z,55.80
2022-08-23T16:15:22.946Z,55.90
2022-08-23T16:17:50.029Z,56.40
2022-08-23T16:20:17.678Z,56.90
2022-08-23T16:22:44.936Z,56.00
2022-08-23T16:25:11.919Z,55.70
2022-08-23T16:27:38.955Z,55.80
2022-08-23T16:30:07.418Z,55.50
2022-08-23T16:49:14.908Z,55.10
2022-08-23T16:51:42.802Z,55.70
2022-08-23T16:54:09.691Z,56.10
2022-08-23T16:56:38.240Z,55.60
2022-08-23T16:59:07.818Z,56.10
2022-08-23T17:01:49.747Z,55.50
2022-08-23T17:04:18.438Z,55.70
2022-08-23T17:06:46.275Z,55.80
2022-08-23T17:09:14.734Z,56.10
2022-08-23T17:11:43.084Z,55.80
2022-08-23T17:14:12.197Z,56.20
2022-08-23T17:16:39.682Z,56.60
2022-08-23T17:19:06.604Z,56.50
2022-08-23T17:21:33.479Z,56.60
2022-08-23T17:24:00.452Z,56.70
2022-08-23T17:26:27.383Z,57.00
2022-08-23T17:28:56.522Z,56.80
2022-08-23T17:31:24.409Z,57.10
2022-08-23T17:33:55.444Z,57.00
2022-08-23T17:36:49.699Z,57.40
2022-08-23T17:39:21.239Z,57.20
2022-08-23T17:41:48.346Z,57.30
2022-08-23T17:44:15.669Z,57.20
2022-08-23T17:46:44.833Z,57.20
2022-08-23T17:49:12.756Z,57.00
2022-08-23T17:51:41.216Z,57.20
2022-08-23T17:54:10.125Z,57.10
2022-08-23T17:56:37.921Z,57.20
2022-08-23T17:59:07.511Z,57.50
2022-08-23T18:01:34.639Z,57.00
2022-08-23T18:04:05.584Z,57.40
2022-08-23T18:06:33.646Z,57.40
2022-08-23T18:09:02.810Z,57.80
2022-08-23T18:11:31.814Z,58.00
2022-08-23T18:13:58.737Z,59.30
2022-08-23T18:16:33.172Z,60.70
2022-08-23T18:19:03.900Z,62.80
2022-08-23T18:21:31.170Z,63.80
2022-08-23T18:23:58.993Z,64.70
2022-08-23T18:26:45.455Z,64.60
2022-08-23T18:29:14.707Z,65.70
2022-08-23T18:31:43.654Z,65.50
2022-08-23T18:34:11.996Z,64.40
2022-08-23T18:36:39.129Z,65.10
2022-08-23T18:39:08.059Z,64.70
2022-08-23T18:41:35.612Z,64.10
2022-08-23T18:44:06.050Z,64.80
2022-08-23T18:46:37.428Z,65.30
2022-08-23T18:49:04.953Z,66.30
2022-08-23T18:51:31.976Z,66.60
2022-08-23T18:53:59.364Z,66.20
2022-08-23T18:56:26.885Z,66.60
2022-08-23T18:58:54.475Z,66.80
2022-08-23T19:01:30.086Z,66.50
2022-08-23T19:03:59.648Z,66.60
2022-08-23T19:06:27.906Z,66.80
2022-08-23T19:08:55.201Z,67.30
2022-08-23T19:11:23.344Z,67.90
2022-08-23T19:13:51.197Z,68.80
2022-08-23T19:16:19.591Z,69.80
2022-08-23T19:18:52.832Z,69.80
2022-08-23T19:21:23.258Z,69.50
2022-08-23T19:23:53.818Z,69.00
2022-08-23T19:26:26.209Z,68.80
2022-08-23T19:28:53.081Z,69.90
2022-08-23T19:31:20.133Z,69.20
2022-08-23T19:33:47.079Z,69.10
2022-08-23T19:36:35.827Z,69.30
2022-08-23T19:39:01.033Z,69.20
2022-08-23T19:41:29.107Z,69.50
2022-08-23T19:43:55.983Z,68.90
2022-08-23T19:46:22.909Z,69.10
2022-08-23T19:48:51.273Z,68.50
2022-08-23T19:51:19.751Z,68.80
2022-08-23T19:54:11.055Z,68.70
2022-08-23T19:56:44.857Z,69.10
2022-08-23T19:59:16.388Z,70.50
2022-08-23T20:01:43.463Z,71.10
2022-08-23T20:04:10.751Z,70.10
2022-08-23T20:06:37.838Z,69.80
2022-08-23T20:09:06.392Z,69.70
2022-08-23T20:11:33.390Z,69.40
2022-08-23T20:14:05.407Z,69.00
2022-08-23T20:16:33.080Z,69.10
2022-08-23T20:19:01.182Z,69.30
2022-08-23T20:21:28.410Z,69.60
2022-08-23T20:24:02.260Z,69.80
2022-08-23T20:26:38.348Z,69.60
2022-08-23T20:29:05.537Z,70.20
2022-08-23T20:31:36.830Z,71.20
2022-08-23T20:34:05.680Z,71.50
2022-08-23T20:36:33.401Z,71.80
2022-08-23T20:39:01.435Z,72.50
2022-08-23T20:41:30.552Z,73.30
2022-08-23T20:43:57.954Z,72.90
2022-08-23T20:46:25.607Z,72.80
2022-08-23T20:48:53.175Z,72.20
2022-08-23T20:51:21.065Z,71.50
2022-08-23T20:53:47.996Z,71.00
2022-08-23T20:56:15.043Z,71.50
2022-08-23T20:58:42.401Z,72.80
2022-08-23T21:01:11.165Z,74.70
2022-08-23T21:03:39.054Z,74.40
2022-08-23T21:06:19.945Z,73.80
2022-08-23T21:08:53.637Z,73.30
2022-08-23T21:11:22.863Z,73.80
2022-08-23T21:13:49.980Z,74.00
2022-08-23T21:16:17.959Z,73.40
2022-08-23T21:18:45.822Z,73.70
2022-08-23T21:21:13.167Z,73.90
2022-08-23T21:23:40.052Z,74.80
2022-08-23T21:26:07.760Z,74.70
2022-08-23T21:28:36.248Z,73.30
2022-08-23T21:31:10.026Z,73.70
2022-08-23T21:33:40.244Z,73.60
2022-08-23T21:36:11.206Z,74.50
2022-08-23T21:38:38.672Z,74.80
2022-08-23T21:41:11.296Z,75.10
2022-08-23T21:43:38.803Z,75.20
2022-08-23T21:46:07.335Z,75.10
2022-08-23T21:48:34.677Z,75.10
2022-08-23T21:51:01.818Z,75.40
2022-08-23T21:53:28.685Z,76.40
2022-08-23T21:55:55.697Z,76.20
2022-08-23T21:58:22.620Z,75.30
2022-08-23T22:00:49.520Z,75.10
2022-08-23T22:03:16.413Z,75.00
2022-08-23T22:05:44.858Z,75.90
2022-08-23T22:08:14.267Z,76.20
2022-08-23T22:10:48.136Z,76.80
2022-08-23T22:13:23.661Z,77.40
2022-08-23T22:15:50.607Z,77.50
2022-08-23T22:18:20.834Z,76.70
2022-08-23T22:20:47.719Z,75.90
2022-08-23T22:23:14.671Z,76.20
2022-08-23T22:25:41.722Z,76.30
2022-08-23T22:28:08.765Z,76.60
2022-08-23T22:30:36.016Z,77.60
2022-08-23T22:33:03.133Z,78.30
2022-08-23T22:35:34.375Z,78.40
2022-08-23T22:38:18.115Z,78.40
2022-08-23T22:40:50.578Z,77.80
2022-08-23T22:43:19.082Z,77.80
2022-08-23T22:45:57.434Z,77.20
2022-08-23T22:48:25.111Z,76.80
2022-08-23T22:51:02.788Z,76.60
2022-08-23T22:53:30.001Z,76.50
2022-08-23T22:55:56.825Z,76.50
2022-08-23T22:58:23.706Z,76.40
2022-08-23T23:00:51.594Z,76.10
2022-08-23T23:03:19.428Z,76.30
2022-08-23T23:05:46.370Z,77.50
2022-08-23T23:08:28.472Z,77.30
2022-08-23T23:11:01.302Z,78.30
2022-08-23T23:13:31.523Z,78.80
2022-08-23T23:16:02.182Z,79.10
2022-08-23T23:18:29.642Z,79.00
2022-08-23T23:21:01.652Z,78.70
2022-08-23T23:23:30.121Z,78.40
2022-08-23T23:25:58.379Z,77.60
2022-08-23T23:28:25.560Z,77.20
2022-08-23T23:30:54.639Z,77.60
2022-08-23T23:33:22.394Z,78.10
2022-08-23T23:35:49.871Z,78.30
2022-08-23T23:38:16.761Z,78.80
2022-08-23T23:40:44.020Z,78.60
2022-08-23T23:43:13.181Z,78.60
2022-08-23T23:45:41.094Z,78.30
2022-08-23T23:48:08.956Z,78.50
2022-08-23T23:50:39.626Z,78.60
2022-08-23T23:53:12.437Z,78.30
2022-08-23T23:55:39.534Z,78.30
2022-08-23T23:58:06.455Z,78.30
